Accueil
METAR-TAF:

METAR-TAF

Aéroports :

Caldwell, New Jersey, États-Unis

latitude: 40-52-35N, longitude: 074-16-59W, altitude: 52 m

Observation

Le bulletin a été fait il y a 1 heure et 0 minutes, à 14:53 UTC
Vent calme
Température 18°C
Humidité 34%
Pression 1011 hPa
Visibilité: 16.1 km
Ciel clair

METAR: KCDW 191453Z 00000KT 10SM CLR 18/02 A2984 RMK AO2 SLP111 T01780022 58012

Heure: 11:53 (15:53 UTC)


TAF: absent

Observations et prévisions météorologiques de plus de 4000 aéroports (messages METAR et TAF).

Les stations disponibles sont représentées par des disques jaunes et rouges sur la carte.

Passer la souris dessus pour voir le nom de la station.

Cliquer dessus pour voir les observations et prévisions météorologiques.

Pour changer de carte: cliquez sur les boutons verts avec une croix noire pour zoomer, sur le bouton vert avec un tiret pour effectuer un zoom arrière, ou sur les flèches vertes pour les cartes adjacentes.


METAR-TAF: